GIF weather

Winter Haven Regional Airport - Gilbert Field
Winter Haven, Florida, United States

Public forecast

Using degrees Fahrenheit for public forecast. Weather courtesy of forecast.io.

METAR (pilot weather report)

Retrieved 2019/07/18 01:53 UTC (26 minutes ago):

KGIF 180153Z AUTO 19010KT 10SM FEW110 24/22 A3016 RMK AO2 LTG DSNT SE RAE21 SLP209 P0001 T02440222

TAF (pilot weather forecast)

Forecast is more than 12 hours old.

Closest forecast is Lakeland Linder International Airport, 14.7 nm (27.3 km) WSW. Retrieved 2019/07/17 00:36 UTC (1 day ago):

TAF KLAL 172334Z 1800/1824 26007KT P6SM VCSH SCT035 BKN070 TEMPO 1800/1802 VRB12G25KT 3SM TSRA BKN025CB OVC070 FM180200 VRB03KT P6SM SCT030 BKN100 FM181500 15006KT P6SM VCTS FEW025CB SCT200 FM182000 26006KT P6SM VCTS SCT025CB BKN100 AMD NOT SKED 1802/1811